createdAt,value
2023-02-19T00:00:29.786Z,7.09
2023-02-19T00:01:29.514Z,7
2023-02-19T00:02:29.530Z,7.08
2023-02-19T00:03:29.970Z,7.08
2023-02-19T00:04:29.462Z,7.04
2023-02-19T00:05:29.744Z,7.08
2023-02-19T00:06:29.698Z,7.08
2023-02-19T00:07:29.424Z,7.08
2023-02-19T00:08:29.155Z,7.13
2023-02-19T00:09:29.668Z,7.09
2023-02-19T00:10:29.504Z,7.11
2023-02-19T00:11:29.644Z,7.03
2023-02-19T00:12:29.348Z,7.01
2023-02-19T00:13:29.328Z,7.15
2023-02-19T00:14:29.323Z,7.15
2023-02-19T00:15:29.616Z,7.15
2023-02-19T00:16:29.544Z,7.21
2023-02-19T00:17:29.524Z,7.04
2023-02-19T00:18:29.532Z,7.12
2023-02-19T00:19:29.530Z,7.19
2023-02-19T00:20:29.477Z,7.04
2023-02-19T00:21:29.514Z,7.08
2023-02-19T00:22:29.462Z,7.15
2023-02-19T00:23:29.181Z,7.21
2023-02-19T00:24:29.431Z,7.15
2023-02-19T00:25:29.455Z,7.15
2023-02-19T00:26:29.437Z,7.03
2023-02-19T00:27:29.400Z,7.03
2023-02-19T00:28:29.114Z,7.08
2023-02-19T00:29:29.358Z,7.03
2023-02-19T00:30:29.182Z,7.09
2023-02-19T00:31:31.526Z,7.11
2023-02-19T00:32:29.318Z,7.05
2023-02-19T00:33:29.081Z,7.13
2023-02-19T00:34:29.306Z,7.05
2023-02-19T00:35:29.312Z,7.05
2023-02-19T00:36:29.244Z,7.16
2023-02-19T00:37:29.249Z,7.11
2023-02-19T00:38:28.972Z,7.08
2023-02-19T00:39:29.234Z,7.01
2023-02-19T00:40:28.936Z,7.13
2023-02-19T00:41:28.923Z,7.13
2023-02-19T00:42:28.910Z,7.18
2023-02-19T00:43:29.141Z,7.11
2023-02-19T00:44:28.865Z,7.12
2023-02-19T00:45:29.116Z,7.13
2023-02-19T00:46:29.107Z,7.04
2023-02-19T00:47:28.824Z,7.13
2023-02-19T00:48:29.068Z,7.08
2023-02-19T00:49:29.099Z,7.03
2023-02-19T00:50:29.082Z,7.11
2023-02-19T00:51:29.055Z,7.18
2023-02-19T00:52:28.763Z,7.15
2023-02-19T00:53:29.027Z,7.11
2023-02-19T00:54:28.982Z,7.16
2023-02-19T00:55:28.959Z,7.08
2023-02-19T00:56:28.707Z,7.12
2023-02-19T00:57:28.939Z,7.08
2023-02-19T00:58:28.922Z,7
2023-02-19T00:59:28.926Z,7.15
2023-02-19T01:00:28.642Z,7.11
2023-02-19T01:01:28.983Z,7.15
2023-02-19T01:02:28.867Z,7.03
2023-02-19T01:03:28.599Z,7.04
2023-02-19T01:04:28.673Z,7.12
2023-02-19T01:05:28.560Z,7
2023-02-19T01:06:28.835Z,6.98
2023-02-19T01:07:28.296Z,6.97
2023-02-19T01:08:28.766Z,7.03
2023-02-19T01:09:28.775Z,7.01
2023-02-19T01:10:28.732Z,6.95
2023-02-19T01:11:28.251Z,7.03
2023-02-19T01:12:28.455Z,7.03
2023-02-19T01:13:28.453Z,7.05
2023-02-19T01:14:28.435Z,7
2023-02-19T01:15:28.425Z,7.08
2023-02-19T01:16:29.204Z,6.93
2023-02-19T01:17:28.623Z,6.88
2023-02-19T01:18:29.282Z,7
2023-02-19T01:19:29.535Z,7
2023-02-19T01:20:29.524Z,6.83
2023-02-19T01:21:29.023Z,6.88
2023-02-19T01:22:29.507Z,6.91
2023-02-19T01:23:29.235Z,6.9
2023-02-19T01:24:29.199Z,6.88
2023-02-19T01:25:29.299Z,6.88
2023-02-19T01:26:29.169Z,6.88
2023-02-19T01:27:29.415Z,6.9
2023-02-19T01:28:29.409Z,6.98
2023-02-19T01:29:29.127Z,6.86
2023-02-19T01:30:29.569Z,6.94
2023-02-19T01:31:29.546Z,6.9
2023-02-19T01:32:29.105Z,6.85
2023-02-19T01:34:29.052Z,6.94
2023-02-19T01:35:29.281Z,6.83
2023-02-19T01:36:29.263Z,6.91
2023-02-19T01:37:28.740Z,6.91
2023-02-19T01:38:29.284Z,6.85
2023-02-19T01:39:29.249Z,6.93
2023-02-19T01:40:29.209Z,6.94
2023-02-19T01:41:29.254Z,6.9
2023-02-19T01:42:28.935Z,6.91
2023-02-19T01:43:28.925Z,6.85
2023-02-19T01:44:29.154Z,6.9
2023-02-19T01:45:28.893Z,6.9
2023-02-19T01:46:29.247Z,6.9
2023-02-19T01:47:29.125Z,6.9
2023-02-19T01:48:29.090Z,6.93
2023-02-19T01:49:28.828Z,6.98
2023-02-19T01:50:28.829Z,7.01
2023-02-19T01:51:29.075Z,6.86
2023-02-19T01:52:28.778Z,6.9
2023-02-19T01:53:28.768Z,6.88
2023-02-19T01:54:29.026Z,6.95
2023-02-19T01:55:28.782Z,6.93
2023-02-19T01:56:28.979Z,6.95
2023-02-19T01:57:28.731Z,6.95
2023-02-19T01:58:28.950Z,6.98
2023-02-19T01:59:28.438Z,6.95
2023-02-19T02:00:28.509Z,7.01
2023-02-19T02:01:28.402Z,7.05
2023-02-19T02:02:28.873Z,7.03
2023-02-19T02:03:28.630Z,7.03
2023-02-19T02:04:28.392Z,7.05
2023-02-19T02:05:28.851Z,7.03
2023-02-19T02:06:28.820Z,6.97
2023-02-19T02:07:28.803Z,7.04
2023-02-19T02:08:28.804Z,7.03
2023-02-19T02:09:28.513Z,7
2023-02-19T02:10:28.814Z,6.94
2023-02-19T02:11:28.770Z,7.08
2023-02-19T02:12:28.475Z,7.11
2023-02-19T02:13:28.494Z,7.03
2023-02-19T02:14:28.463Z,7.05
2023-02-19T02:15:28.436Z,7.03
2023-02-19T02:16:28.600Z,6.98
2023-02-19T02:17:28.696Z,7.09
2023-02-19T02:18:28.636Z,7.09
2023-02-19T02:19:28.372Z,6.98
2023-02-19T02:20:28.092Z,7.04
2023-02-19T02:21:28.103Z,7.03
2023-02-19T02:22:28.578Z,7.01
2023-02-19T02:23:28.569Z,7.08
2023-02-19T02:24:28.303Z,7.11
2023-02-19T02:25:28.556Z,7.08
2023-02-19T02:26:29.203Z,7.08
2023-02-19T02:27:29.170Z,7.03
2023-02-19T02:28:28.885Z,7.04
2023-02-19T02:29:28.873Z,7.05
2023-02-19T02:30:29.246Z,7.01
2023-02-19T02:31:29.410Z,7.03
2023-02-19T02:32:29.097Z,7.09
2023-02-19T02:33:28.794Z,7.03
2023-02-19T02:34:29.032Z,6.98
2023-02-19T02:35:29.075Z,7.08
2023-02-19T02:36:28.780Z,7.08
2023-02-19T02:37:28.737Z,7.11
2023-02-19T02:38:28.727Z,7.09
2023-02-19T02:39:28.702Z,7.15
2023-02-19T02:40:28.956Z,7.13
2023-02-19T02:41:28.938Z,7.16
2023-02-19T02:42:28.928Z,7.21
2023-02-19T02:43:28.904Z,7.21
2023-02-19T02:44:28.885Z,7.13
2023-02-19T02:45:28.697Z,7.16
2023-02-19T02:46:28.629Z,7.13
2023-02-19T02:47:28.322Z,7.16
2023-02-19T02:48:28.576Z,7.16
2023-02-19T02:49:28.297Z,7.11
2023-02-19T02:50:28.530Z,7.18
2023-02-19T02:51:28.792Z,7.15
2023-02-19T02:52:28.783Z,7.19
2023-02-19T02:53:28.239Z,7.23
2023-02-19T02:54:28.484Z,7.15
2023-02-19T02:55:28.705Z,7.13
2023-02-19T02:56:28.454Z,7.26
2023-02-19T02:57:28.681Z,7.18
2023-02-19T02:58:28.430Z,7.13
2023-02-19T02:59:28.412Z,7.18
2023-02-19T03:00:28.639Z,7.22
2023-02-19T03:01:28.825Z,7.19
2023-02-19T03:02:28.920Z,7.18
2023-02-19T03:03:28.593Z,7.21
2023-02-19T03:04:28.570Z,7.19
2023-02-19T03:05:28.563Z,7.22
2023-02-19T03:06:28.556Z,7.23
2023-02-19T03:07:28.524Z,7.22
2023-02-19T03:08:28.511Z,7.19
2023-02-19T03:09:28.257Z,7.23
2023-02-19T03:10:28.246Z,7.26
2023-02-19T03:11:28.468Z,7.22
2023-02-19T03:12:28.470Z,7.21
2023-02-19T03:13:28.432Z,7.22
2023-02-19T03:14:28.425Z,7.21
2023-02-19T03:15:28.427Z,7.29
2023-02-19T03:16:28.195Z,7.18
2023-02-19T03:17:28.127Z,7.26
2023-02-19T03:18:28.106Z,7.21
2023-02-19T03:19:28.350Z,7.22
2023-02-19T03:20:28.351Z,7.23
2023-02-19T03:21:28.093Z,7.23
2023-02-19T03:22:28.299Z,7.27
2023-02-19T03:23:28.293Z,7.26
2023-02-19T03:24:28.012Z,7.26
2023-02-19T03:25:28.285Z,7.3
2023-02-19T03:26:28.324Z,7.22
2023-02-19T03:27:27.717Z,7.23
2023-02-19T03:28:27.999Z,7.29
2023-02-19T03:29:28.199Z,7.27
2023-02-19T03:30:28.039Z,7.27
2023-02-19T03:31:28.495Z,7.27
2023-02-19T03:32:28.214Z,7.34
2023-02-19T03:49:43.621Z,7.23
2023-02-19T03:50:43.858Z,7.19
2023-02-19T03:51:43.576Z,7.23
2023-02-19T03:52:43.893Z,7.23
2023-02-19T03:53:43.530Z,7.18
2023-02-19T03:54:43.762Z,7.23
2023-02-19T03:55:43.754Z,7.19
2023-02-19T03:56:43.732Z,7.22
2023-02-19T03:57:43.729Z,7.3
2023-02-19T03:58:43.457Z,7.22
2023-02-19T03:59:43.434Z,7.23
2023-02-19T04:00:43.691Z,7.23
2023-02-19T04:01:43.423Z,7.26
2023-02-19T04:02:43.399Z,7.26
2023-02-19T04:03:43.624Z,7.26
2023-02-19T04:04:43.580Z,7.22
2023-02-19T04:05:43.606Z,7.22
2023-02-19T04:06:43.333Z,7.26
2023-02-19T04:07:43.567Z,7.29
2023-02-19T04:08:43.547Z,7.21
2023-02-19T04:09:43.282Z,7.23
2023-02-19T04:10:43.253Z,7.3
2023-02-19T04:11:43.354Z,7.31
2023-02-19T04:12:43.220Z,7.23
2023-02-19T04:13:43.495Z,7.22
2023-02-19T04:14:43.479Z,7.26
2023-02-19T04:15:43.438Z,7.3
2023-02-19T04:16:43.607Z,7.27
2023-02-19T04:17:43.466Z,7.27
2023-02-19T04:18:43.423Z,7.34
2023-02-19T04:19:43.129Z,7.27
2023-02-19T04:20:43.099Z,7.27
2023-02-19T04:21:43.087Z,7.3
2023-02-19T04:22:43.123Z,7.31
2023-02-19T04:23:43.083Z,7.31
2023-02-19T04:24:43.334Z,7.29
2023-02-19T04:25:43.290Z,7.29
2023-02-19T04:26:42.799Z,7.39
2023-02-19T04:27:43.261Z,7.36
2023-02-19T04:28:43.244Z,7.37
2023-02-19T04:29:43.950Z,7.39
2023-02-19T04:30:43.492Z,7.31
2023-02-19T04:31:42.826Z,7.31
2023-02-19T04:32:43.188Z,7.4
2023-02-19T04:33:42.917Z,7.4
2023-02-19T04:34:43.145Z,7.39
2023-02-19T04:35:43.145Z,7.33
2023-02-19T04:36:42.860Z,7.41
2023-02-19T04:37:43.219Z,7.34
2023-02-19T04:38:43.083Z,7.31
2023-02-19T04:39:43.065Z,7.31
2023-02-19T04:40:42.798Z,7.34
2023-02-19T04:41:43.034Z,7.31
2023-02-19T04:42:42.783Z,7.33
2023-02-19T04:43:42.751Z,7.39
2023-02-19T04:44:42.492Z,7.39
2023-02-19T04:45:43.011Z,7.36
2023-02-19T04:46:45.524Z,7.34
2023-02-19T04:47:42.952Z,7.47
2023-02-19T04:48:42.951Z,7.37
2023-02-19T04:49:42.667Z,7.39
2023-02-19T04:50:42.916Z,7.44
2023-02-19T04:51:42.635Z,7.39
2023-02-19T04:52:42.873Z,7.4
2023-02-19T04:53:42.867Z,7.4
2023-02-19T04:54:42.840Z,7.33
2023-02-19T04:55:42.828Z,7.37
2023-02-19T04:56:42.552Z,7.37
2023-02-19T04:57:42.817Z,7.39
2023-02-19T04:58:42.540Z,7.47
2023-02-19T04:59:42.507Z,7.41
2023-02-19T05:00:42.495Z,7.44
2023-02-19T05:01:42.962Z,7.4
2023-02-19T05:02:42.728Z,7.45
2023-02-19T05:03:42.725Z,7.49
2023-02-19T05:04:42.572Z,7.39
2023-02-19T05:05:42.664Z,7.4
2023-02-19T05:06:42.687Z,7.4
2023-02-19T05:07:42.450Z,7.37
2023-02-19T05:08:42.389Z,7.41
2023-02-19T05:09:42.637Z,7.36
2023-02-19T05:10:42.621Z,7.41
2023-02-19T05:11:42.332Z,7.26
2023-02-19T05:12:42.307Z,7.37
2023-02-19T05:13:42.447Z,7.45
2023-02-19T05:14:42.743Z,7.51
2023-02-19T05:15:42.340Z,7.49
2023-02-19T05:16:42.512Z,7.47
2023-02-19T05:17:42.260Z,7.48
2023-02-19T05:18:42.228Z,7.44
2023-02-19T05:19:42.477Z,7.4
2023-02-19T05:20:42.202Z,7.48
2023-02-19T05:21:42.174Z,7.41
2023-02-19T05:22:42.190Z,7.52
2023-02-19T05:23:42.159Z,7.49
2023-02-19T05:24:42.413Z,7.4
2023-02-19T05:25:42.119Z,7.48
2023-02-19T05:26:44.082Z,7.41
2023-02-19T05:27:41.839Z,7.44
2023-02-19T05:28:42.082Z,7.41
2023-02-19T05:29:42.346Z,7.45
2023-02-19T05:30:42.315Z,7.36
2023-02-19T05:31:42.499Z,7.44
2023-02-19T05:32:42.029Z,7.4
2023-02-19T05:33:42.039Z,7.49
2023-02-19T05:34:41.748Z,7.48
2023-02-19T05:35:41.986Z,7.4
2023-02-19T05:36:41.964Z,7.51
2023-02-19T05:37:42.191Z,7.45
2023-02-19T05:38:42.200Z,7.41
2023-02-19T05:39:42.173Z,7.51
2023-02-19T05:40:42.159Z,7.52
2023-02-19T05:41:42.134Z,7.4
2023-02-19T05:42:41.874Z,7.44
2023-02-19T05:43:42.126Z,7.39
2023-02-19T05:44:42.123Z,7.48
2023-02-19T05:45:41.834Z,7.49
2023-02-19T05:46:42.288Z,7.37
2023-02-19T05:47:41.805Z,7.51
2023-02-19T05:48:41.779Z,7.48
2023-02-19T05:49:41.772Z,7.45
2023-02-19T05:50:43.959Z,7.45
2023-02-19T05:51:42.167Z,7.49
2023-02-19T05:52:41.978Z,7.48
2023-02-19T05:53:41.976Z,7.54
2023-02-19T05:54:41.685Z,7.48
2023-02-19T05:55:41.685Z,7.44
2023-02-19T05:56:41.965Z,7.51
2023-02-19T05:57:44.580Z,7.51
2023-02-19T05:58:41.393Z,7.41
2023-02-19T05:59:41.879Z,7.39
2023-02-19T06:00:41.608Z,7.4
2023-02-19T06:01:42.256Z,7.54
2023-02-19T06:02:42.110Z,7.39
2023-02-19T06:03:42.359Z,7.41
2023-02-19T06:04:41.964Z,7.45
2023-02-19T06:05:41.965Z,7.39
2023-02-19T06:06:41.964Z,7.4
2023-02-19T06:07:42.176Z,7.51
2023-02-19T06:08:42.154Z,7.37
2023-02-19T06:09:41.883Z,7.39
2023-02-19T06:10:41.611Z,7.37
2023-02-19T06:11:41.856Z,7.4
2023-02-19T06:12:42.107Z,7.39
2023-02-19T06:13:42.112Z,7.44
2023-02-19T06:14:42.072Z,7.44
2023-02-19T06:15:42.111Z,7.44
2023-02-19T06:16:42.060Z,7.44
2023-02-19T06:17:42.054Z,7.39
2023-02-19T06:18:42.025Z,7.48
2023-02-19T06:19:41.787Z,7.44
2023-02-19T06:20:41.754Z,7.4
2023-02-19T06:21:41.994Z,7.49
2023-02-19T06:22:41.693Z,7.4
2023-02-19T06:23:41.944Z,7.4
2023-02-19T06:24:41.671Z,7.33
2023-02-19T06:25:41.909Z,7.4
2023-02-19T06:26:41.906Z,7.44
2023-02-19T06:27:41.626Z,7.4
2023-02-19T06:28:41.885Z,7.39
2023-02-19T06:29:41.860Z,7.41
2023-02-19T06:30:41.844Z,7.41
2023-02-19T06:31:41.985Z,7.34
2023-02-19T06:32:41.570Z,7.41
2023-02-19T06:33:41.296Z,7.45
2023-02-19T06:34:41.789Z,7.4
2023-02-19T06:35:41.630Z,7.45
2023-02-19T06:36:41.246Z,7.39
2023-02-19T06:37:41.772Z,7.36
2023-02-19T06:38:41.732Z,7.3
2023-02-19T06:39:41.711Z,7.31
2023-02-19T06:40:41.445Z,7.26
2023-02-19T06:41:41.698Z,7.33
2023-02-19T06:42:41.679Z,7.3
2023-02-19T06:43:41.719Z,7.31
2023-02-19T06:44:41.646Z,7.37
2023-02-19T06:45:41.632Z,7.3
2023-02-19T06:46:41.857Z,7.26
2023-02-19T06:47:41.581Z,7.23
2023-02-19T06:48:41.584Z,7.18
2023-02-19T06:49:41.565Z,7.22
2023-02-19T06:50:41.541Z,7.22
2023-02-19T06:51:41.532Z,7.21
2023-02-19T06:52:41.536Z,7.22
2023-02-19T06:53:41.007Z,7.19
2023-02-19T06:54:41.232Z,7.22
2023-02-19T06:55:41.464Z,7.16
2023-02-19T06:56:40.949Z,7.18
2023-02-19T06:57:41.197Z,7.12
2023-02-19T06:58:41.421Z,7.15
2023-02-19T06:59:41.156Z,7.16
2023-02-19T07:00:41.296Z,7.12
2023-02-19T07:01:41.154Z,7.05
2023-02-19T07:02:41.379Z,7.03
2023-02-19T07:03:41.115Z,7.08
2023-02-19T07:04:41.343Z,7.04
2023-02-19T07:05:41.342Z,7.01
2023-02-19T07:06:41.070Z,7.01
2023-02-19T07:07:41.282Z,7
2023-02-19T07:08:41.030Z,6.83
2023-02-19T07:09:41.001Z,6.88
2023-02-19T07:10:41.014Z,6.88
2023-02-19T07:11:41.022Z,6.93
2023-02-19T07:12:41.210Z,6.93
2023-02-19T07:13:41.212Z,6.91
2023-02-19T07:14:41.177Z,6.93
2023-02-19T07:15:41.159Z,6.82
2023-02-19T07:16:41.376Z,6.85
2023-02-19T07:17:41.140Z,6.8
2023-02-19T07:18:40.871Z,6.8
2023-02-19T07:19:40.847Z,6.83
2023-02-19T07:20:41.116Z,6.85
2023-02-19T07:21:41.072Z,6.8
2023-02-19T07:22:41.046Z,6.78
2023-02-19T07:23:41.041Z,6.83
2023-02-19T07:24:40.780Z,6.78
2023-02-19T07:25:41.625Z,6.86
2023-02-19T07:26:41.594Z,6.78
2023-02-19T07:27:41.325Z,6.82
2023-02-19T07:28:41.599Z,6.83
2023-02-19T07:29:41.295Z,6.79
2023-02-19T07:30:41.403Z,6.79
2023-02-19T07:31:41.944Z,6.73
2023-02-19T07:32:41.501Z,6.72
2023-02-19T07:33:41.489Z,6.82
2023-02-19T07:34:41.476Z,6.76
2023-02-19T07:35:41.453Z,6.76
2023-02-19T07:36:41.196Z,6.8
2023-02-19T07:37:40.911Z,6.79
2023-02-19T07:38:41.156Z,6.7
2023-02-19T07:39:41.139Z,6.73
2023-02-19T07:40:41.128Z,6.73
2023-02-19T07:41:41.114Z,6.75
2023-02-19T07:42:41.381Z,6.75
2023-02-19T07:43:41.355Z,6.78
2023-02-19T07:44:41.313Z,6.73
2023-02-19T07:45:41.491Z,6.75
2023-02-19T07:46:41.290Z,6.73
2023-02-19T07:47:41.045Z,6.67
2023-02-19T07:48:41.293Z,6.68
2023-02-19T07:49:41.257Z,6.72
2023-02-19T07:50:40.990Z,6.7
2023-02-19T07:51:40.702Z,6.75
2023-02-19T07:52:41.232Z,6.64
2023-02-19T07:53:41.193Z,6.67
2023-02-19T07:54:41.170Z,6.68
2023-02-19T07:55:41.158Z,6.72
2023-02-19T07:56:40.617Z,6.73
2023-02-19T07:57:40.863Z,6.67
2023-02-19T07:58:40.846Z,6.73
2023-02-19T07:59:41.079Z,6.65
2023-02-19T08:00:41.079Z,6.73
2023-02-19T08:01:40.911Z,6.76
2023-02-19T08:02:41.034Z,6.75
2023-02-19T08:03:41.166Z,6.73
2023-02-19T08:04:41.016Z,6.73
2023-02-19T08:05:40.997Z,6.73
2023-02-19T08:06:40.732Z,6.73
2023-02-19T08:07:40.697Z,6.68
2023-02-19T08:08:40.717Z,6.73
2023-02-19T08:09:40.431Z,6.73
2023-02-19T08:10:40.408Z,6.72
2023-02-19T08:11:40.642Z,6.67
2023-02-19T08:12:40.922Z,6.67
2023-02-19T08:13:40.916Z,6.68
2023-02-19T08:14:40.616Z,6.65
2023-02-19T08:15:40.837Z,6.64
2023-02-19T08:16:47.908Z,6.64
2023-02-19T08:17:41.385Z,6.73
2023-02-19T08:18:41.638Z,6.72
2023-02-19T08:19:41.602Z,6.79
2023-02-19T08:20:41.589Z,6.82
2023-02-19T08:21:41.419Z,6.79
2023-02-19T08:22:41.583Z,6.75
2023-02-19T08:23:41.283Z,6.78
2023-02-19T08:24:41.538Z,6.9
2023-02-19T08:25:41.514Z,6.8
2023-02-19T08:26:41.246Z,6.79
2023-02-19T08:27:41.234Z,6.83
2023-02-19T08:28:41.476Z,6.85
2023-02-19T08:29:41.458Z,6.83
2023-02-19T08:30:41.342Z,6.93
2023-02-19T08:31:42.679Z,6.83
2023-02-19T08:32:42.015Z,6.86
2023-02-19T08:33:42.896Z,6.85
2023-02-19T08:34:42.868Z,6.91
2023-02-19T08:35:43.124Z,6.82
2023-02-19T08:36:42.847Z,6.85
2023-02-19T08:37:42.826Z,6.85
2023-02-19T08:38:42.854Z,6.86
2023-02-19T08:39:42.801Z,6.83
2023-02-19T08:40:43.057Z,6.86
2023-02-19T08:41:42.766Z,6.86
2023-02-19T08:42:43.010Z,6.85
2023-02-19T08:43:42.743Z,6.82
2023-02-19T08:44:42.976Z,6.83
2023-02-19T08:45:42.926Z,6.95
2023-02-19T08:46:42.954Z,6.85
2023-02-19T08:47:42.949Z,6.9
2023-02-19T08:48:42.957Z,6.94
2023-02-19T08:49:42.385Z,6.93
2023-02-19T08:50:42.637Z,6.9
2023-02-19T08:51:42.463Z,6.9
2023-02-19T08:52:42.340Z,6.95
2023-02-19T08:53:42.865Z,6.93
2023-02-19T08:54:42.829Z,6.95
2023-02-19T08:55:42.539Z,7.08
2023-02-19T08:56:42.893Z,7.04
2023-02-19T08:57:42.778Z,7.09
2023-02-19T08:58:42.784Z,7.05
2023-02-19T08:59:42.491Z,7.15
2023-02-19T09:00:42.464Z,7.18
2023-02-19T09:01:42.354Z,7.16
2023-02-19T09:02:42.703Z,7.05
2023-02-19T09:03:42.708Z,7.18
2023-02-19T09:04:42.412Z,7.16
2023-02-19T09:05:42.439Z,7.11
2023-02-19T09:06:44.886Z,7.11
2023-02-19T09:07:42.134Z,7.13
2023-02-19T09:08:42.090Z,7.15
2023-02-19T09:09:42.327Z,7.11
2023-02-19T09:10:42.057Z,7.13
2023-02-19T09:11:42.561Z,7.04
2023-02-19T09:12:42.037Z,7.05
2023-02-19T09:13:42.609Z,7.05
2023-02-19T09:14:42.510Z,7.08
2023-02-19T09:15:42.344Z,7.18
2023-02-19T09:16:42.501Z,7.12
2023-02-19T09:17:42.219Z,7.19
2023-02-19T09:18:42.496Z,7.13
2023-02-19T09:19:42.181Z,7.13
2023-02-19T09:20:42.410Z,7.12
2023-02-19T09:21:42.427Z,7.15
2023-02-19T09:22:42.399Z,7.16
2023-02-19T09:23:42.122Z,7.21
2023-02-19T09:24:41.857Z,7.23
2023-02-19T09:25:42.091Z,7.26
2023-02-19T09:26:43.578Z,7.27
2023-02-19T09:27:41.820Z,7.31
2023-02-19T09:28:42.299Z,7.34
2023-02-19T09:29:42.281Z,7.33
2023-02-19T09:30:42.558Z,7.37
2023-02-19T09:31:42.447Z,7.3
2023-02-19T09:32:41.984Z,7.33
2023-02-19T09:33:41.985Z,7.3
2023-02-19T09:34:42.209Z,7.52
2023-02-19T09:35:42.207Z,7.48
2023-02-19T09:36:41.933Z,7.51
2023-02-19T09:37:41.911Z,7.39
2023-02-19T09:38:42.166Z,7.48
2023-02-19T09:39:41.890Z,7.39
2023-02-19T09:40:42.121Z,7.4
2023-02-19T09:41:42.107Z,7.4
2023-02-19T09:42:42.092Z,7.36
2023-02-19T09:43:41.839Z,7.36
2023-02-19T09:44:41.811Z,7.39
2023-02-19T09:45:42.040Z,7.3
2023-02-19T09:46:42.035Z,7.34
2023-02-19T09:47:41.766Z,7.37
2023-02-19T09:48:41.753Z,7.34
2023-02-19T09:49:41.735Z,7.26
2023-02-19T09:50:42.018Z,7.27
2023-02-19T09:51:41.959Z,7.22
2023-02-19T09:52:41.682Z,7.27
2023-02-19T09:53:41.935Z,7.27
2023-02-19T09:54:41.908Z,7.26
2023-02-19T09:55:41.897Z,7.26
2023-02-19T09:56:42.410Z,7.37
2023-02-19T09:57:42.033Z,7.3
2023-02-19T09:58:41.590Z,7.39
2023-02-19T09:59:41.390Z,7.39
2023-02-19T10:00:41.822Z,7.36
2023-02-19T10:01:41.648Z,7.36
2023-02-19T10:02:41.288Z,7.27
2023-02-19T10:03:41.554Z,7.34
2023-02-19T10:04:41.529Z,7.29
2023-02-19T10:05:41.759Z,7.33
2023-02-19T10:06:41.746Z,7.39
2023-02-19T10:07:41.705Z,7.4
2023-02-19T10:08:41.442Z,7.41
2023-02-19T10:09:41.681Z,7.52
2023-02-19T10:10:41.665Z,7.47
2023-02-19T10:11:41.685Z,7.36
2023-02-19T10:12:41.416Z,7.39
2023-02-19T10:13:41.621Z,7.16
2023-02-19T10:14:41.614Z,6.78
2023-02-19T10:15:41.573Z,6.61
2023-02-19T10:16:41.318Z,6.29
2023-02-19T10:17:41.308Z,6.02
2023-02-19T10:18:41.345Z,5.92
2023-02-19T10:19:41.298Z,5.77
2023-02-19T10:20:41.346Z,5.59
2023-02-19T10:21:41.317Z,5.46
2023-02-19T10:22:41.314Z,5.44
2023-02-19T10:23:41.291Z,5.27
2023-02-19T10:24:43.112Z,5.16
2023-02-19T10:25:41.277Z,4.95
2023-02-19T10:26:41.020Z,4.83
2023-02-19T10:27:41.572Z,4.72
2023-02-19T10:28:40.963Z,4.69
2023-02-19T10:29:41.453Z,4.51
2023-02-19T10:30:41.554Z,4.54
2023-02-19T10:31:41.793Z,4.47
2023-02-19T10:32:40.878Z,4.4
2023-02-19T10:33:41.124Z,4.4
2023-02-19T10:34:41.349Z,4.36
2023-02-19T10:35:41.084Z,4.3
2023-02-19T10:36:41.330Z,4.3
2023-02-19T10:37:41.371Z,4.28
2023-02-19T10:38:41.314Z,4.21
2023-02-19T10:39:41.019Z,4.17
2023-02-19T10:40:41.263Z,4.12
2023-02-19T10:41:43.841Z,4.17
2023-02-19T10:42:41.224Z,4.17
2023-02-19T10:43:40.953Z,4.04
2023-02-19T10:44:40.684Z,4.08
2023-02-19T10:45:40.916Z,4.08
2023-02-19T10:46:41.079Z,3.94
2023-02-19T10:47:40.878Z,4.04
2023-02-19T10:48:40.856Z,4.03
2023-02-19T10:49:41.126Z,4.11
2023-02-19T10:50:40.876Z,4.08
2023-02-19T10:51:40.818Z,4.14
2023-02-19T10:52:41.055Z,4.17
2023-02-19T10:53:41.037Z,4.21
2023-02-19T10:54:41.376Z,4.29
2023-02-19T10:55:42.769Z,4.2
2023-02-19T10:56:41.635Z,4.24
2023-02-19T10:57:41.584Z,4.22
2023-02-19T10:58:41.570Z,4.24
2023-02-19T10:59:41.554Z,4.32
2023-02-19T11:00:41.546Z,4.33
2023-02-19T11:01:41.626Z,4.29
2023-02-19T11:02:41.593Z,4.32
2023-02-19T11:03:41.440Z,4.32
2023-02-19T11:04:41.357Z,4.32
2023-02-19T11:05:41.657Z,4.26
2023-02-19T11:06:41.384Z,4.28
2023-02-19T11:07:41.371Z,4.15
2023-02-19T11:08:41.589Z,4.3
2023-02-19T11:09:41.346Z,4.29
2023-02-19T11:10:41.311Z,4.28
2023-02-19T11:11:41.041Z,4.33
2023-02-19T11:12:41.263Z,4.3
2023-02-19T11:13:41.518Z,4.39
2023-02-19T11:14:40.991Z,4.36
2023-02-19T11:15:41.484Z,4.33
2023-02-19T11:16:41.217Z,4.35
2023-02-19T11:17:41.462Z,4.33
2023-02-19T11:18:41.437Z,4.32
2023-02-19T11:19:41.279Z,4.3
2023-02-19T11:20:41.134Z,4.33
2023-02-19T11:21:41.375Z,4.5
2023-02-19T11:22:40.866Z,4.57
2023-02-19T11:23:41.379Z,4.53
2023-02-19T11:24:41.351Z,4.5
2023-02-19T11:25:41.072Z,4.57
2023-02-19T11:26:41.024Z,4.42
2023-02-19T11:27:41.317Z,4.46
2023-02-19T11:28:41.296Z,4.42
2023-02-19T11:29:41.240Z,4.35
2023-02-19T11:30:41.728Z,4.33
2023-02-19T11:31:41.653Z,4.28
2023-02-19T11:32:41.183Z,4.3
2023-02-19T11:33:41.175Z,4.21
2023-02-19T11:34:41.536Z,4.24
2023-02-19T11:35:40.622Z,4.08
2023-02-19T11:36:41.184Z,3.89
2023-02-19T11:37:41.096Z,3.85
2023-02-19T11:38:41.074Z,3.76
2023-02-19T11:39:40.841Z,3.78
2023-02-19T11:40:41.059Z,3.69
2023-02-19T11:41:41.175Z,3.6
2023-02-19T11:42:41.019Z,3.57
2023-02-19T11:43:40.998Z,3.6
2023-02-19T11:44:40.982Z,3.54
2023-02-19T11:45:40.963Z,3.53
2023-02-19T11:46:40.858Z,3.54
2023-02-19T11:47:40.937Z,3.49
2023-02-19T11:48:40.944Z,3.6
2023-02-19T11:49:40.686Z,3.53
2023-02-19T11:50:40.894Z,3.53
2023-02-19T11:51:40.605Z,3.57
2023-02-19T11:52:40.854Z,3.48
2023-02-19T11:53:40.594Z,3.57
2023-02-19T11:54:40.836Z,3.61
2023-02-19T11:55:40.787Z,3.63
2023-02-19T11:56:40.521Z,3.53
2023-02-19T11:57:40.796Z,3.6
2023-02-19T11:58:40.771Z,3.63
2023-02-19T11:59:40.750Z,3.66
2023-02-19T12:00:40.708Z,3.61
2023-02-19T12:01:40.808Z,3.63
2023-02-19T12:02:40.656Z,3.6
2023-02-19T12:03:40.380Z,3.51
2023-02-19T12:04:42.618Z,3.4
2023-02-19T12:05:40.372Z,3.48
2023-02-19T12:06:40.620Z,3.37
2023-02-19T12:07:40.572Z,3.23
2023-02-19T12:08:40.554Z,3.2
2023-02-19T12:09:40.298Z,3.19
2023-02-19T12:10:40.505Z,3.13
2023-02-19T12:11:40.515Z,3.03
2023-02-19T12:12:42.331Z,3.03
2023-02-19T12:13:40.472Z,2.9
2023-02-19T12:14:40.437Z,2.88
2023-02-19T12:15:40.430Z,2.87
2023-02-19T12:16:40.531Z,2.81
2023-02-19T12:17:40.411Z,2.78
2023-02-19T12:18:40.127Z,2.96
2023-02-19T12:19:40.345Z,2.87
2023-02-19T12:20:40.383Z,2.9
2023-02-19T12:21:40.341Z,2.91
2023-02-19T12:22:40.073Z,2.88
2023-02-19T12:23:40.305Z,2.87
2023-02-19T12:24:40.016Z,2.95
2023-02-19T12:25:40.033Z,2.93
2023-02-19T12:26:40.291Z,2.9
2023-02-19T12:27:39.984Z,2.96
2023-02-19T12:28:40.269Z,3.06
2023-02-19T12:29:39.715Z,3.08
2023-02-19T12:30:40.340Z,3.11
2023-02-19T12:31:40.110Z,3.13
2023-02-19T12:32:40.159Z,3.11
2023-02-19T12:33:39.876Z,3.19
2023-02-19T12:34:40.144Z,3.26
2023-02-19T12:35:39.855Z,3.19
2023-02-19T12:36:39.837Z,3.21
2023-02-19T12:37:40.064Z,3.21
2023-02-19T12:38:40.036Z,3.23
2023-02-19T12:39:39.785Z,3.24
2023-02-19T12:40:39.757Z,3.29
2023-02-19T12:41:39.999Z,3.32
2023-02-19T12:42:40.006Z,3.4
2023-02-19T12:43:39.698Z,3.46
2023-02-19T12:44:39.939Z,3.45
2023-02-19T12:45:40.103Z,3.42
2023-02-19T12:46:39.942Z,3.48
2023-02-19T12:47:39.915Z,3.48
2023-02-19T12:48:39.629Z,3.53
2023-02-19T12:49:39.863Z,3.54
2023-02-19T12:50:39.827Z,3.53
2023-02-19T12:51:39.559Z,3.51
2023-02-19T12:52:39.800Z,3.54
2023-02-19T12:53:39.531Z,3.51
2023-02-19T12:54:39.519Z,3.51
2023-02-19T12:55:39.739Z,3.63
2023-02-19T12:56:39.226Z,3.67
2023-02-19T12:57:39.452Z,3.67
2023-02-19T12:58:39.202Z,3.71
2023-02-19T12:59:39.149Z,3.66
2023-02-19T13:00:39.648Z,3.85
2023-02-19T13:01:39.851Z,3.82
2023-02-19T13:02:39.953Z,3.92
2023-02-19T13:03:39.620Z,3.96
2023-02-19T13:04:39.077Z,4.1
2023-02-19T13:05:39.338Z,4.11
2023-02-19T13:06:39.311Z,4.12
2023-02-19T13:07:39.526Z,4.14
2023-02-19T13:08:57.828Z,4.17
2023-02-19T13:09:39.500Z,4.07
2023-02-19T13:10:39.234Z,4
2023-02-19T13:11:41.742Z,4.03
2023-02-19T13:12:39.483Z,4.11
2023-02-19T13:13:39.183Z,4.1
2023-02-19T13:14:39.228Z,4.11
2023-02-19T13:15:39.415Z,4.1
2023-02-19T13:16:39.570Z,4.02
2023-02-19T13:17:39.135Z,3.97
2023-02-19T13:18:39.340Z,4.11
2023-02-19T13:19:39.069Z,4.11
2023-02-19T13:20:38.819Z,4.07
2023-02-19T13:21:40.213Z,4.07
2023-02-19T13:22:39.038Z,4.17
2023-02-19T13:23:39.008Z,4.14
2023-02-19T13:24:38.973Z,4.28
2023-02-19T13:25:39.246Z,4.21
2023-02-19T13:26:39.058Z,4.21
2023-02-19T13:27:41.547Z,4.14
2023-02-19T13:28:39.189Z,4.15
2023-02-19T13:29:38.896Z,4.1
2023-02-19T13:30:40.173Z,4.14
2023-02-19T13:31:40.552Z,4.12
2023-02-19T13:32:39.880Z,4.2
2023-02-19T13:33:39.856Z,4.14
2023-02-19T13:34:39.880Z,4.3
2023-02-19T13:35:39.848Z,4.18
2023-02-19T13:36:40.052Z,4.28
2023-02-19T13:37:39.824Z,4.22
2023-02-19T13:38:40.073Z,4.28
2023-02-19T13:39:39.747Z,4.24